Time;durP1;ratioP1;P1;durP2;ratioP2;P2;SDS_P1;SDS_P2;PMS_P1;PMS_P2;Temp;Humidity;BMP_temperature;BMP_pressure;BME280_temperature;BME280_humidity;BME280_pressure;Samples;Min_cycle;Max_cycle;Signal;HPM_P1;HPM_P2
2023/05/17 00:00:44;;;;;;;;;;;15.40;75.10;;;;;;5037150;28;82115;-40
2023/05/17 00:03:10;;;;;;;;;;;15.40;75.10;;;;;;5035787;28;82100;-41
2023/05/17 00:05:35;;;;;;;;;;;15.40;75.10;;;;;;5036523;28;82404;-41
2023/05/17 00:08:01;;;;;;;;;;;15.40;75.10;;;;;;5038046;28;82985;-41
2023/05/17 00:10:26;;;;;;;;;;;15.40;75.10;;;;;;5036632;28;82468;-40
2023/05/17 00:12:52;;;;;;;;;;;15.30;75.00;;;;;;5036555;28;82940;-41
2023/05/17 00:15:17;;;;;;;;;;;15.30;75.10;;;;;;5035932;28;82070;-41
2023/05/17 00:17:43;;;;;;;;;;;15.40;75.00;;;;;;5035876;27;83998;-40
2023/05/17 00:20:09;;;;;;;;;;;15.40;75.10;;;;;;5034581;28;84765;-41
2023/05/17 00:22:35;;;;;;;;;;;15.40;75.10;;;;;;5036829;28;82073;-40
2023/05/17 00:25:00;;;;;;;;;;;15.30;75.00;;;;;;5034388;28;84276;-41
2023/05/17 00:27:26;;;;;;;;;;;15.30;75.00;;;;;;5037344;28;82965;-41
2023/05/17 00:29:51;;;;;;;;;;;15.30;75.10;;;;;;5036699;28;82081;-41
2023/05/17 00:32:17;;;;;;;;;;;15.30;75.00;;;;;;5037120;28;83340;-41
2023/05/17 00:34:42;;;;;;;;;;;15.30;74.90;;;;;;5033811;28;81395;-41
2023/05/17 00:37:08;;;;;;;;;;;15.30;75.00;;;;;;5037274;28;81896;-41
2023/05/17 00:39:33;;;;;;;;;;;15.30;75.10;;;;;;5034605;28;83096;-41
2023/05/17 00:42:00;;;;;;;;;;;15.30;75.00;;;;;;5036377;28;83461;-41
2023/05/17 00:44:25;;;;;;;;;;;15.30;75.00;;;;;;5034745;27;82491;-41
2023/05/17 00:46:51;;;;;;;;;;;15.30;75.10;;;;;;5035899;28;83518;-41
2023/05/17 00:49:16;;;;;;;;;;;15.30;75.10;;;;;;5035133;28;82040;-41
2023/05/17 00:51:43;;;;;;;;;;;15.20;75.00;;;;;;5038133;28;83692;-41
2023/05/17 00:54:09;;;;;;;;;;;15.20;75.00;;;;;;5035383;28;82067;-41
2023/05/17 00:56:34;;;;;;;;;;;15.20;75.00;;;;;;5035387;28;82388;-40
2023/05/17 00:59:01;;;;;;;;;;;15.20;75.00;;;;;;5036250;28;82254;-41
2023/05/17 01:01:27;;;;;;;;;;;15.20;74.90;;;;;;5035004;28;82116;-41
2023/05/17 01:03:52;;;;;;;;;;;15.30;75.00;;;;;;5036018;27;83539;-40
2023/05/17 01:06:18;;;;;;;;;;;15.30;75.00;;;;;;5033190;28;84201;-41
2023/05/17 01:08:43;;;;;;;;;;;15.20;75.00;;;;;;5036419;28;81989;-41
2023/05/17 01:11:12;;;;;;;;;;;15.30;75.00;;;;;;5032064;28;85439;-41
2023/05/17 01:13:43;;;;;;;;;;;15.30;75.00;;;;;;5039329;28;83001;-40
2023/05/17 01:16:11;;;;;;;;;;;15.20;74.90;;;;;;5034804;28;82677;-41
2023/05/17 01:18:39;;;;;;;;;;;15.20;74.80;;;;;;5035685;28;83148;-40
2023/05/17 01:21:11;;;;;;;;;;;15.20;74.80;;;;;;5034415;28;82231;-41
2023/05/17 01:24:02;;;;;;;;;;;15.20;75.00;;;;;;5034994;28;82271;-40
2023/05/17 01:26:42;;;;;;;;;;;15.20;74.90;;;;;;5031799;28;82227;-40
2023/05/17 01:29:08;;;;;;;;;;;15.30;74.90;;;;;;5033410;28;81960;-41
2023/05/17 01:31:35;;;;;;;;;;;15.20;74.80;;;;;;5035166;28;82901;-41
2023/05/17 01:34:00;;;;;;;;;;;15.20;74.90;;;;;;5034109;28;82053;-40
2023/05/17 01:36:26;;;;;;;;;;;15.20;74.80;;;;;;5038317;28;82136;-41
2023/05/17 01:38:52;;;;;;;;;;;15.20;74.80;;;;;;5034012;28;84025;-41
2023/05/17 01:41:35;;;;;;;;;;;15.20;74.80;;;;;;5035207;28;82033;-41
2023/05/17 01:44:00;;;;;;;;;;;15.20;74.80;;;;;;5029935;28;82382;-40
2023/05/17 01:46:26;;;;;;;;;;;15.20;74.80;;;;;;5036975;28;82847;-40
2023/05/17 01:48:59;;;;;;;;;;;15.20;74.80;;;;;;5032765;28;81195;-40
2023/05/17 01:51:27;;;;;;;;;;;15.20;74.80;;;;;;5033835;28;82034;-41
2023/05/17 01:53:55;;;;;;;;;;;15.10;74.70;;;;;;5039499;28;82948;-40
2023/05/17 01:56:26;;;;;;;;;;;15.10;75.00;;;;;;5038728;28;82994;-41
2023/05/17 01:58:52;;;;;;;;;;;15.10;75.50;;;;;;5038407;28;82973;-41
2023/05/17 02:01:18;;;;;;;;;;;15.10;74.80;;;;;;5036922;28;82351;-40
2023/05/17 02:03:48;;;;;;;;;;;15.20;74.80;;;;;;5038760;27;82680;-40
2023/05/17 02:06:13;;;;;;;;;;;15.10;74.80;;;;;;5036811;28;83436;-41
2023/05/17 02:08:39;;;;;;;;;;;15.20;74.80;;;;;;5038562;28;82090;-41
2023/05/17 02:11:05;;;;;;;;;;;15.10;74.80;;;;;;5036481;28;82445;-40
2023/05/17 02:13:30;;;;;;;;;;;15.10;74.90;;;;;;5039460;28;82543;-40
2023/05/17 02:16:02;;;;;;;;;;;15.10;74.90;;;;;;5036363;28;82039;-41
2023/05/17 02:18:28;;;;;;;;;;;15.10;75.00;;;;;;5041084;28;82523;-41
2023/05/17 02:20:54;;;;;;;;;;;15.10;74.90;;;;;;5035364;28;83075;-41
2023/05/17 02:23:20;;;;;;;;;;;15.10;74.90;;;;;;5039035;28;83348;-41
2023/05/17 02:25:45;;;;;;;;;;;15.10;74.90;;;;;;5035400;28;82012;-41
2023/05/17 02:28:11;;;;;;;;;;;15.00;74.90;;;;;;5039571;28;82124;-41
2023/05/17 02:30:39;;;;;;;;;;;15.00;74.90;;;;;;5035902;28;82973;-41
2023/05/17 02:33:05;;;;;;;;;;;15.00;75.00;;;;;;5031549;28;83574;-41
2023/05/17 02:35:31;;;;;;;;;;;15.00;74.90;;;;;;5039407;28;82298;-41
2023/05/17 02:37:56;;;;;;;;;;;15.00;74.80;;;;;;5036109;28;82531;-41
2023/05/17 02:40:22;;;;;;;;;;;15.00;74.90;;;;;;5042020;28;82586;-41
2023/05/17 02:42:47;;;;;;;;;;;15.10;74.90;;;;;;5036557;28;82356;-40
2023/05/17 02:45:13;;;;;;;;;;;15.00;74.90;;;;;;5037941;28;83913;-40
2023/05/17 02:47:38;;;;;;;;;;;15.00;74.80;;;;;;5036812;28;82131;-40
2023/05/17 02:50:04;;;;;;;;;;;15.00;74.80;;;;;;5038560;28;82292;-40
2023/05/17 02:52:29;;;;;;;;;;;15.00;74.80;;;;;;5037198;28;82983;-40
2023/05/17 02:54:55;;;;;;;;;;;15.00;74.80;;;;;;5037701;28;82077;-40
2023/05/17 02:57:20;;;;;;;;;;;15.00;74.90;;;;;;5037647;27;83827;-41
2023/05/17 02:59:46;;;;;;;;;;;15.00;74.90;;;;;;5036144;28;84475;-41
2023/05/17 03:02:11;;;;;;;;;;;15.00;74.90;;;;;;5041098;28;81402;-40
2023/05/17 03:04:37;;;;;;;;;;;14.90;74.90;;;;;;5035657;28;82954;-40
2023/05/17 03:07:03;;;;;;;;;;;15.00;74.80;;;;;;5038479;28;82045;-40
2023/05/17 03:09:31;;;;;;;;;;;14.90;74.90;;;;;;5035509;28;82904;-40
2023/05/17 03:11:56;;;;;;;;;;;14.90;74.80;;;;;;5037849;28;83080;-41
2023/05/17 03:14:22;;;;;;;;;;;14.90;74.80;;;;;;5035905;28;81859;-41
2023/05/17 03:16:47;;;;;;;;;;;14.90;74.80;;;;;;5039029;28;82457;-40
2023/05/17 03:19:13;;;;;;;;;;;14.90;74.70;;;;;;5034939;28;83018;-41
2023/05/17 03:21:39;;;;;;;;;;;14.90;74.70;;;;;;5030799;28;82319;-41
2023/05/17 03:24:04;;;;;;;;;;;15.00;74.60;;;;;;5041633;28;82318;-40
2023/05/17 03:26:32;;;;;;;;;;;14.90;74.60;;;;;;5036067;28;81401;-41
2023/05/17 03:28:57;;;;;;;;;;;14.90;74.60;;;;;;5038722;28;82462;-40
2023/05/17 03:31:23;;;;;;;;;;;14.90;74.80;;;;;;5035709;28;82888;-40
2023/05/17 03:33:48;;;;;;;;;;;14.90;74.70;;;;;;5037249;28;83025;-41
2023/05/17 03:36:14;;;;;;;;;;;14.90;74.60;;;;;;5036196;28;83729;-40
2023/05/17 03:38:39;;;;;;;;;;;14.90;74.70;;;;;;5037148;28;82801;-40
2023/05/17 03:41:05;;;;;;;;;;;14.90;74.70;;;;;;5036883;28;82088;-41
2023/05/17 03:43:31;;;;;;;;;;;14.90;74.70;;;;;;5037075;28;81847;-40
2023/05/17 03:45:56;;;;;;;;;;;14.80;74.60;;;;;;5039055;28;84230;-40
2023/05/17 03:48:22;;;;;;;;;;;14.90;74.60;;;;;;5036267;28;82186;-40
2023/05/17 03:50:47;;;;;;;;;;;14.90;74.60;;;;;;5037769;28;82329;-41
2023/05/17 03:53:13;;;;;;;;;;;14.90;74.60;;;;;;5035888;28;82952;-40
2023/05/17 03:55:38;;;;;;;;;;;14.90;74.60;;;;;;5037799;28;82297;-41
2023/05/17 03:58:04;;;;;;;;;;;14.80;74.60;;;;;;5034505;28;83774;-41
2023/05/17 04:00:29;;;;;;;;;;;14.80;74.50;;;;;;5038100;28;82289;-41
2023/05/17 04:02:55;;;;;;;;;;;14.80;74.50;;;;;;5034531;28;82263;-41
2023/05/17 04:05:20;;;;;;;;;;;14.80;74.50;;;;;;5032829;28;82240;-41
2023/05/17 04:07:46;;;;;;;;;;;14.80;74.50;;;;;;5036619;28;84133;-40
2023/05/17 04:10:11;;;;;;;;;;;14.90;74.50;;;;;;5033010;28;83159;-41
2023/05/17 04:12:37;;;;;;;;;;;14.90;74.50;;;;;;5037595;28;82219;-40
2023/05/17 04:15:02;;;;;;;;;;;14.80;74.40;;;;;;5035908;28;82713;-40
2023/05/17 04:17:28;;;;;;;;;;;14.80;74.40;;;;;;5036651;28;83153;-41
2023/05/17 04:19:53;;;;;;;;;;;14.90;74.40;;;;;;5035819;28;82128;-40
2023/05/17 04:22:19;;;;;;;;;;;14.80;74.40;;;;;;5035820;28;82896;-41
2023/05/17 04:24:45;;;;;;;;;;;14.80;74.40;;;;;;5036025;28;82985;-40
2023/05/17 04:27:10;;;;;;;;;;;14.80;74.40;;;;;;5038683;28;82092;-41
2023/05/17 04:29:36;;;;;;;;;;;14.80;74.50;;;;;;5036022;28;81961;-40
2023/05/17 04:32:01;;;;;;;;;;;14.80;74.40;;;;;;5035333;28;82132;-41
2023/05/17 04:34:27;;;;;;;;;;;14.80;74.50;;;;;;5036811;28;82506;-41
2023/05/17 04:36:52;;;;;;;;;;;14.80;74.40;;;;;;5034496;28;83025;-40
2023/05/17 04:39:19;;;;;;;;;;;14.80;74.40;;;;;;5037340;28;81306;-41
2023/05/17 04:41:45;;;;;;;;;;;14.80;74.40;;;;;;5033957;28;83212;-40
2023/05/17 04:44:10;;;;;;;;;;;14.80;74.30;;;;;;5036939;28;82970;-40
2023/05/17 04:46:36;;;;;;;;;;;14.80;74.30;;;;;;5033066;28;83435;-41
2023/05/17 04:49:02;;;;;;;;;;;14.80;74.40;;;;;;5040099;27;84076;-40
2023/05/17 04:51:28;;;;;;;;;;;14.80;74.60;;;;;;5034063;28;81949;-41
2023/05/17 04:53:53;;;;;;;;;;;14.80;74.30;;;;;;5036808;28;82389;-41
2023/05/17 04:56:19;;;;;;;;;;;14.80;74.30;;;;;;5034126;28;82243;-41
2023/05/17 04:58:44;;;;;;;;;;;14.80;74.30;;;;;;5036833;28;82094;-41
2023/05/17 05:01:10;;;;;;;;;;;14.80;74.30;;;;;;5034700;28;82599;-41
2023/05/17 05:03:36;;;;;;;;;;;14.80;74.30;;;;;;5036422;28;83798;-40
2023/05/17 05:06:02;;;;;;;;;;;14.80;74.30;;;;;;5034441;28;82340;-41
2023/05/17 05:08:28;;;;;;;;;;;14.80;74.20;;;;;;5035216;28;84007;-40
2023/05/17 05:10:54;;;;;;;;;;;14.90;74.30;;;;;;5036867;28;83674;-41
2023/05/17 05:13:20;;;;;;;;;;;14.80;74.20;;;;;;5034933;28;83147;-41
2023/05/17 05:15:45;;;;;;;;;;;14.80;74.30;;;;;;5035486;28;82167;-41
2023/05/17 05:18:11;;;;;;;;;;;14.80;74.30;;;;;;5034922;28;82107;-41
2023/05/17 05:20:36;;;;;;;;;;;14.80;74.30;;;;;;5035675;28;82397;-41
2023/05/17 05:23:04;;;;;;;;;;;14.80;74.40;;;;;;5037644;28;82996;-41
2023/05/17 05:25:30;;;;;;;;;;;14.90;74.40;;;;;;5039233;28;82559;-40
2023/05/17 05:27:56;;;;;;;;;;;14.90;74.40;;;;;;5038439;28;82487;-41
2023/05/17 05:30:21;;;;;;;;;;;14.80;74.30;;;;;;5040340;28;82975;-40
2023/05/17 05:32:50;;;;;;;;;;;14.90;74.40;;;;;;5039995;28;82636;-41
2023/05/17 05:35:15;;;;;;;;;;;14.90;74.50;;;;;;5038780;28;84159;-41
2023/05/17 05:37:41;;;;;;;;;;;14.90;74.50;;;;;;5036897;28;82331;-40
2023/05/17 05:40:07;;;;;;;;;;;14.90;74.50;;;;;;5040059;28;82012;-41
2023/05/17 05:42:33;;;;;;;;;;;15.00;74.50;;;;;;5031776;28;84529;-41
2023/05/17 05:44:58;;;;;;;;;;;15.00;74.60;;;;;;5039801;28;82374;-41
2023/05/17 05:47:24;;;;;;;;;;;14.90;74.70;;;;;;5037168;27;82233;-41
2023/05/17 05:49:49;;;;;;;;;;;14.90;74.60;;;;;;5039295;28;83083;-41
2023/05/17 05:52:15;;;;;;;;;;;14.90;74.70;;;;;;5038337;28;81234;-40
2023/05/17 05:54:41;;;;;;;;;;;15.00;74.70;;;;;;5041745;28;83030;-41
2023/05/17 05:57:06;;;;;;;;;;;15.00;74.70;;;;;;5037869;28;82027;-40
2023/05/17 05:59:32;;;;;;;;;;;15.00;74.70;;;;;;5038291;28;83046;-41
2023/05/17 06:01:57;;;;;;;;;;;15.00;74.70;;;;;;5037578;28;82817;-41
2023/05/17 06:04:23;;;;;;;;;;;15.00;74.70;;;;;;5037775;28;81974;-40
2023/05/17 06:06:49;;;;;;;;;;;15.00;74.80;;;;;;5038696;28;82239;-40
2023/05/17 06:09:15;;;;;;;;;;;15.00;74.70;;;;;;5037006;28;82789;-40
2023/05/17 06:11:40;;;;;;;;;;;15.00;74.50;;;;;;5038737;28;82071;-40
2023/05/17 06:14:07;;;;;;;;;;;15.00;74.70;;;;;;5039495;28;82539;-41
2023/05/17 06:16:32;;;;;;;;;;;15.00;74.70;;;;;;5039673;28;81345;-40
2023/05/17 06:18:58;;;;;;;;;;;15.10;74.50;;;;;;5036806;28;82011;-40
2023/05/17 06:21:24;;;;;;;;;;;15.00;74.60;;;;;;5039539;28;82222;-40
2023/05/17 06:23:49;;;;;;;;;;;15.10;74.60;;;;;;5033616;28;83059;-41
2023/05/17 06:26:15;;;;;;;;;;;15.00;74.90;;;;;;5040184;28;83272;-40
2023/05/17 06:28:41;;;;;;;;;;;15.00;74.80;;;;;;5035962;28;83408;-40
2023/05/17 06:31:06;;;;;;;;;;;15.00;74.90;;;;;;5039733;28;82128;-41
2023/05/17 06:33:32;;;;;;;;;;;15.10;75.20;;;;;;5035762;28;83075;-40
2023/05/17 06:35:57;;;;;;;;;;;15.10;74.70;;;;;;5041283;28;82292;-41
2023/05/17 06:38:23;;;;;;;;;;;15.10;74.80;;;;;;5037125;28;82372;-40
2023/05/17 06:40:52;;;;;;;;;;;15.10;75.10;;;;;;5038565;28;82384;-41
2023/05/17 06:43:18;;;;;;;;;;;15.10;75.40;;;;;;5036335;28;82252;-40
2023/05/17 06:45:43;;;;;;;;;;;15.10;75.70;;;;;;5038073;28;82279;-40
2023/05/17 06:48:09;;;;;;;;;;;15.10;75.70;;;;;;5035798;28;83080;-40
2023/05/17 06:50:35;;;;;;;;;;;15.10;75.80;;;;;;5037731;28;82084;-40
2023/05/17 06:53:00;;;;;;;;;;;15.10;75.80;;;;;;5037140;28;82003;-40
2023/05/17 06:55:26;;;;;;;;;;;15.10;75.90;;;;;;5036331;28;83518;-40
2023/05/17 06:57:51;;;;;;;;;;;15.10;75.80;;;;;;5040224;28;82636;-41
2023/05/17 07:00:17;;;;;;;;;;;15.20;75.80;;;;;;5036259;28;83013;-41
2023/05/17 07:02:42;;;;;;;;;;;15.20;75.70;;;;;;5037640;28;82278;-40
2023/05/17 07:05:08;;;;;;;;;;;15.20;75.80;;;;;;5035274;28;83021;-40
2023/05/17 07:07:33;;;;;;;;;;;15.20;75.70;;;;;;5038110;28;83109;-41
2023/05/17 07:09:59;;;;;;;;;;;15.20;75.80;;;;;;5034743;28;82099;-40
2023/05/17 07:12:24;;;;;;;;;;;15.30;75.80;;;;;;5037997;28;82998;-40
2023/05/17 07:14:50;;;;;;;;;;;15.30;75.70;;;;;;5034794;28;82808;-40
2023/05/17 07:17:15;;;;;;;;;;;15.20;75.70;;;;;;5038134;28;82169;-40
2023/05/17 07:19:41;;;;;;;;;;;15.30;75.80;;;;;;5038005;28;81953;-40
2023/05/17 07:22:06;;;;;;;;;;;15.30;75.80;;;;;;5038109;28;82295;-41
2023/05/17 07:24:34;;;;;;;;;;;15.30;75.80;;;;;;5034974;27;83666;-40
2023/05/17 07:26:59;;;;;;;;;;;15.30;76.00;;;;;;5036893;28;84949;-40
2023/05/17 07:29:25;;;;;;;;;;;15.30;75.70;;;;;;5039110;28;81349;-41
2023/05/17 07:31:50;;;;;;;;;;;15.30;75.80;;;;;;5036082;28;82285;-40
2023/05/17 07:34:16;;;;;;;;;;;15.30;75.80;;;;;;5036377;28;82990;-40
2023/05/17 07:36:41;;;;;;;;;;;15.40;75.70;;;;;;5035923;28;83105;-41
2023/05/17 07:39:08;;;;;;;;;;;15.40;75.90;;;;;;5035739;28;83368;-40
2023/05/17 07:41:33;;;;;;;;;;;15.40;76.20;;;;;;5039120;28;82983;-40
2023/05/17 07:43:59;;;;;;;;;;;15.40;75.90;;;;;;5035211;28;82347;-40
2023/05/17 07:46:24;;;;;;;;;;;15.40;75.80;;;;;;5036085;28;82771;-40
2023/05/17 07:48:50;;;;;;;;;;;15.40;76.00;;;;;;5035180;28;82075;-40
2023/05/17 07:51:15;;;;;;;;;;;15.40;75.80;;;;;;5037916;28;82392;-41
2023/05/17 07:53:41;;;;;;;;;;;15.50;75.90;;;;;;5034582;28;82690;-41
2023/05/17 07:56:06;;;;;;;;;;;15.40;76.00;;;;;;5037885;28;82281;-41
2023/05/17 07:58:32;;;;;;;;;;;15.40;76.00;;;;;;5030339;28;82395;-40
2023/05/17 08:00:58;;;;;;;;;;;15.50;76.30;;;;;;5036574;28;83994;-41
2023/05/17 08:03:24;;;;;;;;;;;15.40;76.20;;;;;;5037074;28;81931;-40
2023/05/17 08:05:49;;;;;;;;;;;15.50;76.00;;;;;;5036477;28;82859;-41
2023/05/17 08:08:15;;;;;;;;;;;15.50;76.00;;;;;;5034720;28;82225;-40
2023/05/17 08:10:42;;;;;;;;;;;15.50;76.30;;;;;;5036291;28;82502;-40
2023/05/17 08:13:08;;;;;;;;;;;15.50;76.00;;;;;;5034541;28;84285;-40
2023/05/17 08:15:33;;;;;;;;;;;15.50;76.00;;;;;;5036043;28;81889;-40
2023/05/17 08:17:59;;;;;;;;;;;15.50;75.90;;;;;;5035959;27;82448;-40
2023/05/17 08:20:24;;;;;;;;;;;15.50;76.10;;;;;;5035478;28;83696;-40
2023/05/17 08:22:50;;;;;;;;;;;15.50;76.50;;;;;;5038565;28;82064;-41
2023/05/17 08:25:15;;;;;;;;;;;15.50;76.10;;;;;;5034181;28;83566;-40
2023/05/17 08:27:41;;;;;;;;;;;15.60;76.30;;;;;;5035999;28;82070;-41
2023/05/17 08:30:07;;;;;;;;;;;15.60;76.30;;;;;;5034542;28;82236;-40
2023/05/17 08:32:32;;;;;;;;;;;15.60;76.40;;;;;;5035958;28;84892;-41
2023/05/17 08:34:58;;;;;;;;;;;15.50;76.40;;;;;;5034042;28;82059;-41
2023/05/17 08:37:23;;;;;;;;;;;15.60;76.50;;;;;;5037126;28;82421;-41
2023/05/17 08:39:50;;;;;;;;;;;15.60;76.20;;;;;;5032806;28;84545;-41
2023/05/17 08:42:25;;;;;;;;;;;15.60;76.40;;;;;;5037375;28;81443;-41
2023/05/17 08:44:54;;;;;;;;;;;15.60;76.60;;;;;;5034617;28;81934;-40
2023/05/17 08:47:28;;;;;;;;;;;15.60;76.40;;;;;;5035892;28;82796;-41
2023/05/17 08:49:59;;;;;;;;;;;15.60;76.40;;;;;;5035246;28;82977;-41
2023/05/17 08:52:34;;;;;;;;;;;15.70;76.70;;;;;;5033885;28;84330;-41
2023/05/17 08:55:02;;;;;;;;;;;15.70;76.40;;;;;;5029542;28;82152;-40
2023/05/17 08:57:29;;;;;;;;;;;15.70;76.50;;;;;;5028865;28;84451;-40
2023/05/17 08:59:56;;;;;;;;;;;15.70;76.60;;;;;;5028846;28;82106;-41
2023/05/17 09:02:22;;;;;;;;;;;15.70;76.60;;;;;;5028965;28;82393;-41
2023/05/17 09:04:54;;;;;;;;;;;15.70;76.40;;;;;;5036791;28;82435;-40
2023/05/17 09:07:21;;;;;;;;;;;15.80;76.50;;;;;;5033123;28;83567;-40
2023/05/17 09:09:49;;;;;;;;;;;15.80;76.50;;;;;;5036547;28;82375;-40
2023/05/17 09:12:15;;;;;;;;;;;15.80;76.50;;;;;;5033577;28;83176;-40
2023/05/17 09:14:41;;;;;;;;;;;15.90;76.60;;;;;;5035985;28;83099;-40
2023/05/17 09:17:07;;;;;;;;;;;15.80;76.50;;;;;;5033315;28;82543;-41
2023/05/17 09:19:33;;;;;;;;;;;15.90;76.60;;;;;;5036703;28;83903;-40
2023/05/17 09:21:58;;;;;;;;;;;15.90;76.90;;;;;;5033053;28;82102;-40
2023/05/17 09:24:28;;;;;;;;;;;15.90;76.50;;;;;;5036372;28;82407;-40
2023/05/17 09:27:00;;;;;;;;;;;15.90;76.40;;;;;;5032396;28;82002;-41
2023/05/17 09:29:25;;;;;;;;;;;15.90;76.40;;;;;;5032776;28;82675;-41
2023/05/17 09:31:51;;;;;;;;;;;15.90;76.50;;;;;;5037063;28;82249;-41
2023/05/17 09:34:19;;;;;;;;;;;15.90;76.50;;;;;;5029047;28;82059;-41
2023/05/17 09:36:45;;;;;;;;;;;16.00;76.60;;;;;;5028922;28;83986;-41
2023/05/17 09:39:13;;;;;;;;;;;16.00;76.50;;;;;;5028000;28;85301;-41
2023/05/17 09:41:43;;;;;;;;;;;15.90;76.60;;;;;;5028876;28;81956;-41
2023/05/17 09:44:10;;;;;;;;;;;16.00;76.60;;;;;;5029204;28;82580;-40
2023/05/17 09:46:40;;;;;;;;;;;16.00;76.70;;;;;;5035832;28;84294;-40
2023/05/17 09:49:06;;;;;;;;;;;16.00;77.10;;;;;;5032611;28;81904;-41
2023/05/17 09:51:35;;;;;;;;;;;16.00;76.60;;;;;;5038285;28;83736;-41
2023/05/17 09:54:00;;;;;;;;;;;16.00;76.70;;;;;;5033144;28;82027;-40
2023/05/17 09:56:27;;;;;;;;;;;16.00;76.60;;;;;;5036283;28;83772;-40
2023/05/17 09:58:52;;;;;;;;;;;16.00;76.60;;;;;;5032665;28;83157;-41
2023/05/17 10:01:18;;;;;;;;;;;16.00;76.60;;;;;;5036018;28;82051;-40
2023/05/17 10:03:43;;;;;;;;;;;16.10;76.60;;;;;;5031648;27;83957;-40
2023/05/17 10:06:11;;;;;;;;;;;16.10;76.50;;;;;;5035492;28;82093;-40
2023/05/17 10:08:37;;;;;;;;;;;16.10;76.40;;;;;;5033293;27;82548;-41
2023/05/17 10:11:09;;;;;;;;;;;16.10;76.40;;;;;;5041506;28;83927;-40
2023/05/17 10:13:46;;;;;;;;;;;16.10;76.30;;;;;;5031546;28;82068;-41
2023/05/17 10:16:11;;;;;;;;;;;16.10;76.40;;;;;;5034258;28;82737;-41
2023/05/17 10:18:39;;;;;;;;;;;16.10;76.30;;;;;;5037864;28;83243;-41
2023/05/17 10:21:05;;;;;;;;;;;16.20;76.40;;;;;;5036766;28;81375;-41
2023/05/17 10:23:31;;;;;;;;;;;16.20;76.40;;;;;;5037848;28;82013;-40
2023/05/17 10:25:58;;;;;;;;;;;16.20;76.30;;;;;;5035949;28;82780;-40
2023/05/17 10:28:25;;;;;;;;;;;16.20;76.50;;;;;;5038147;28;82992;-40
2023/05/17 10:30:52;;;;;;;;;;;16.20;76.30;;;;;;5036157;28;82464;-41
2023/05/17 10:33:19;;;;;;;;;;;16.20;76.30;;;;;;5040218;28;81939;-41
2023/05/17 10:35:44;;;;;;;;;;;16.30;76.30;;;;;;5035724;28;82361;-40
2023/05/17 10:38:10;;;;;;;;;;;16.30;76.30;;;;;;5038838;28;84903;-41
2023/05/17 10:40:37;;;;;;;;;;;16.30;76.20;;;;;;5035296;28;82079;-40
2023/05/17 10:43:04;;;;;;;;;;;16.40;76.30;;;;;;5039365;28;83195;-40
2023/05/17 10:45:29;;;;;;;;;;;16.40;76.30;;;;;;5036186;28;81437;-40
2023/05/17 10:47:55;;;;;;;;;;;16.40;76.30;;;;;;5031723;28;82002;-41
2023/05/17 10:50:25;;;;;;;;;;;16.40;76.40;;;;;;5039266;28;81939;-40
2023/05/17 10:52:52;;;;;;;;;;;16.40;76.40;;;;;;5030991;28;84070;-41
2023/05/17 10:55:21;;;;;;;;;;;16.40;76.40;;;;;;5034326;28;82107;-41
2023/05/17 10:58:07;;;;;;;;;;;16.40;76.40;;;;;;5031884;28;82907;-41
2023/05/17 11:00:37;;;;;;;;;;;16.50;76.40;;;;;;5036732;28;81980;-41
2023/05/17 11:03:12;;;;;;;;;;;16.50;76.20;;;;;;5038041;28;83762;-41
2023/05/17 11:05:40;;;;;;;;;;;16.50;76.30;;;;;;5030717;28;82166;-40
2023/05/17 11:08:16;;;;;;;;;;;16.50;76.20;;;;;;5038534;28;82380;-41
2023/05/17 11:11:00;;;;;;;;;;;16.60;76.20;;;;;;5036988;28;82030;-40
2023/05/17 11:13:28;;;;;;;;;;;16.60;76.20;;;;;;5035318;27;82274;-40
2023/05/17 11:16:03;;;;;;;;;;;16.60;76.10;;;;;;5031048;28;82061;-40
2023/05/17 11:18:44;;;;;;;;;;;16.60;76.20;;;;;;5034876;28;83796;-41
2023/05/17 11:21:12;;;;;;;;;;;16.60;76.20;;;;;;5035964;28;82027;-41
2023/05/17 11:23:38;;;;;;;;;;;16.60;76.30;;;;;;5037252;28;83719;-41
2023/05/17 11:26:17;;;;;;;;;;;16.60;76.20;;;;;;5035765;28;82863;-41
2023/05/17 11:28:43;;;;;;;;;;;16.60;76.10;;;;;;5031054;28;82145;-41
2023/05/17 11:31:08;;;;;;;;;;;16.60;76.20;;;;;;5038827;28;82304;-40
2023/05/17 11:33:44;;;;;;;;;;;16.70;76.10;;;;;;5034536;28;82843;-41
2023/05/17 11:36:14;;;;;;;;;;;16.70;76.10;;;;;;5032854;28;81331;-40
2023/05/17 11:38:39;;;;;;;;;;;16.70;76.10;;;;;;5037243;28;81887;-40
2023/05/17 11:41:18;;;;;;;;;;;16.70;76.10;;;;;;5038033;28;82300;-41
2023/05/17 11:43:45;;;;;;;;;;;16.70;76.10;;;;;;5034860;28;83854;-41
2023/05/17 11:46:17;;;;;;;;;;;16.70;76.00;;;;;;5035417;28;84544;-40
2023/05/17 11:48:43;;;;;;;;;;;16.70;76.00;;;;;;5034329;28;82047;-40
2023/05/17 11:51:12;;;;;;;;;;;16.70;76.00;;;;;;5036135;28;83026;-41
2023/05/17 11:53:38;;;;;;;;;;;16.80;76.00;;;;;;5033525;28;82994;-41
2023/05/17 11:56:05;;;;;;;;;;;16.80;76.00;;;;;;5036230;28;83118;-41
2023/05/17 11:58:30;;;;;;;;;;;16.80;76.00;;;;;;5033063;28;83770;-41
2023/05/17 12:00:57;;;;;;;;;;;16.80;76.10;;;;;;5035680;28;82312;-41
2023/05/17 12:03:24;;;;;;;;;;;16.80;76.30;;;;;;5036170;28;82438;-41
2023/05/17 12:05:59;;;;;;;;;;;16.80;76.30;;;;;;5034280;28;82559;-41
2023/05/17 12:08:25;;;;;;;;;;;16.80;76.30;;;;;;5032424;28;82882;-41
2023/05/17 12:10:51;;;;;;;;;;;16.80;76.40;;;;;;5036189;28;82423;-40
2023/05/17 12:13:17;;;;;;;;;;;16.80;76.20;;;;;;5033530;28;83223;-41
2023/05/17 12:15:43;;;;;;;;;;;16.80;76.20;;;;;;5035914;28;82065;-41
2023/05/17 12:18:09;;;;;;;;;;;16.80;76.40;;;;;;5031755;28;85988;-41
2023/05/17 12:20:36;;;;;;;;;;;16.70;76.50;;;;;;5035380;28;83155;-41
2023/05/17 12:23:02;;;;;;;;;;;16.80;76.40;;;;;;5035581;28;82279;-41
2023/05/17 12:25:28;;;;;;;;;;;16.80;76.40;;;;;;5035190;28;81296;-41
2023/05/17 12:28:17;;;;;;;;;;;16.80;76.50;;;;;;5033318;28;82084;-41
2023/05/17 12:30:43;;;;;;;;;;;16.80;76.50;;;;;;5030272;28;83655;-41
2023/05/17 12:33:09;;;;;;;;;;;16.80;76.40;;;;;;5033910;28;84390;-41
2023/05/17 12:35:34;;;;;;;;;;;16.80;76.40;;;;;;5032961;28;82018;-41
2023/05/17 12:38:00;;;;;;;;;;;16.80;76.30;;;;;;5035287;27;83188;-41
2023/05/17 12:40:26;;;;;;;;;;;16.80;76.30;;;;;;5033145;28;81968;-41
2023/05/17 12:43:00;;;;;;;;;;;16.80;76.20;;;;;;5035922;28;82053;-41
2023/05/17 12:45:25;;;;;;;;;;;16.80;76.20;;;;;;5035992;28;82363;-41
2023/05/17 12:47:51;;;;;;;;;;;16.90;76.20;;;;;;5035648;28;82065;-41
2023/05/17 12:50:24;;;;;;;;;;;16.90;76.20;;;;;;5034154;28;82370;-41
2023/05/17 12:52:50;;;;;;;;;;;16.90;76.10;;;;;;5033588;28;84464;-41
2023/05/17 12:55:16;;;;;;;;;;;16.90;76.00;;;;;;5033614;28;82033;-41
2023/05/17 12:57:47;;;;;;;;;;;16.90;75.80;;;;;;5032680;28;85253;-41
2023/05/17 13:00:13;;;;;;;;;;;16.90;75.80;;;;;;5033974;28;83101;-41
2023/05/17 13:02:40;;;;;;;;;;;16.90;75.90;;;;;;5034315;28;82061;-41
2023/05/17 13:05:20;;;;;;;;;;;16.90;75.80;;;;;;5033081;28;82115;-41
2023/05/17 13:07:46;;;;;;;;;;;16.90;75.80;;;;;;5034366;28;82948;-41
2023/05/17 13:10:22;;;;;;;;;;;16.90;75.70;;;;;;5034396;28;82346;-41
2023/05/17 13:12:55;;;;;;;;;;;16.90;75.70;;;;;;5029257;28;83334;-41
2023/05/17 13:15:25;;;;;;;;;;;16.90;75.50;;;;;;5035793;28;81346;-41
2023/05/17 13:17:50;;;;;;;;;;;16.90;75.40;;;;;;5033968;28;82052;-41
2023/05/17 13:20:17;;;;;;;;;;;16.90;75.50;;;;;;5035463;28;82453;-41
2023/05/17 13:22:46;;;;;;;;;;;16.90;75.50;;;;;;5033005;28;82911;-41
2023/05/17 13:25:11;;;;;;;;;;;16.90;75.50;;;;;;5035848;27;83412;-41
2023/05/17 13:27:37;;;;;;;;;;;16.90;75.50;;;;;;5033498;28;83329;-41
2023/05/17 13:30:02;;;;;;;;;;;16.90;75.50;;;;;;5038287;28;82178;-41
2023/05/17 13:32:28;;;;;;;;;;;17.00;75.50;;;;;;5033221;28;83424;-41
2023/05/17 13:34:53;;;;;;;;;;;16.90;75.40;;;;;;5035647;28;82180;-40
2023/05/17 13:37:21;;;;;;;;;;;16.90;75.40;;;;;;5032040;28;82059;-41
2023/05/17 13:39:46;;;;;;;;;;;17.00;75.50;;;;;;5029148;28;82225;-40
2023/05/17 13:42:12;;;;;;;;;;;17.00;75.40;;;;;;5029937;28;81961;-41
2023/05/17 13:44:38;;;;;;;;;;;17.00;75.40;;;;;;5039101;28;82783;-41
2023/05/17 13:47:04;;;;;;;;;;;17.00;75.30;;;;;;5035037;28;84004;-41
2023/05/17 13:49:29;;;;;;;;;;;17.00;75.30;;;;;;5038981;28;82494;-40
2023/05/17 13:51:55;;;;;;;;;;;17.00;75.30;;;;;;5038962;28;82390;-40
2023/05/17 13:54:21;;;;;;;;;;;17.00;75.30;;;;;;5037900;28;82125;-41
2023/05/17 13:56:47;;;;;;;;;;;17.00;75.30;;;;;;5035773;28;82494;-41
2023/05/17 13:59:12;;;;;;;;;;;17.00;75.20;;;;;;5038075;28;83315;-41
2023/05/17 14:01:39;;;;;;;;;;;17.00;75.20;;;;;;5036905;28;82112;-41
2023/05/17 14:04:05;;;;;;;;;;;17.00;75.10;;;;;;5037109;28;82446;-41
2023/05/17 14:06:31;;;;;;;;;;;17.00;75.10;;;;;;5036191;28;84580;-41
2023/05/17 14:08:58;;;;;;;;;;;17.00;75.20;;;;;;5036724;28;82226;-41
2023/05/17 14:11:23;;;;;;;;;;;17.00;75.10;;;;;;5036920;28;83287;-41
2023/05/17 14:13:49;;;;;;;;;;;17.00;75.00;;;;;;5038521;28;82883;-41